createdAt,value
2023-11-08T00:00:26.431Z,8.58
2023-11-08T00:02:53.037Z,8.60
2023-11-08T00:05:19.585Z,8.62
2023-11-08T00:07:46.101Z,8.62
2023-11-08T00:10:13.876Z,8.62
2023-11-08T00:12:41.416Z,8.65
2023-11-08T00:15:09.718Z,8.67
2023-11-08T00:17:40.001Z,8.67
2023-11-08T00:20:12.227Z,8.69
2023-11-08T00:22:39.331Z,8.70
2023-11-08T00:25:06.421Z,8.63
2023-11-08T00:27:33.207Z,8.59
2023-11-08T00:29:59.976Z,8.60
2023-11-08T00:32:26.612Z,8.57
2023-11-08T00:34:53.161Z,8.55
2023-11-08T00:37:19.877Z,8.54
2023-11-08T00:39:46.523Z,8.53
2023-11-08T00:42:13.033Z,8.53
2023-11-08T00:44:39.661Z,8.59
2023-11-08T00:47:06.216Z,8.59
2023-11-08T00:49:32.736Z,8.60
2023-11-08T00:52:01.300Z,8.58
2023-11-08T00:54:28.450Z,8.60
2023-11-08T00:56:55.162Z,8.58
2023-11-08T00:59:22.159Z,8.59
2023-11-08T01:01:49.093Z,8.59
2023-11-08T01:04:15.774Z,8.58
2023-11-08T01:06:42.485Z,8.61
2023-11-08T01:09:10.508Z,8.61
2023-11-08T01:11:37.280Z,8.63
2023-11-08T01:14:06.029Z,8.64
2023-11-08T01:16:33.100Z,8.65
2023-11-08T01:18:59.688Z,8.62
2023-11-08T01:21:26.416Z,8.60
2023-11-08T01:23:52.920Z,8.57
2023-11-08T01:26:19.398Z,8.54
2023-11-08T01:28:48.813Z,8.55
2023-11-08T01:31:15.323Z,8.57
2023-11-08T01:33:41.987Z,8.53
2023-11-08T01:36:10.111Z,8.54
2023-11-08T01:38:37.123Z,8.54
2023-11-08T01:41:03.776Z,8.49
2023-11-08T01:43:34.948Z,8.47
2023-11-08T01:46:24.604Z,8.45
2023-11-08T01:48:56.239Z,8.45
2023-11-08T01:51:23.448Z,8.48
2023-11-08T01:53:52.890Z,8.48
2023-11-08T01:56:20.269Z,8.53
2023-11-08T01:58:48.671Z,8.54
2023-11-08T02:01:18.392Z,8.55
2023-11-08T02:03:45.757Z,8.56
2023-11-08T02:06:14.523Z,8.52
2023-11-08T02:08:42.095Z,8.49
2023-11-08T02:11:09.753Z,8.46
2023-11-08T02:13:36.376Z,8.43
2023-11-08T02:16:03.591Z,8.43
2023-11-08T02:18:32.488Z,8.45
2023-11-08T02:21:02.994Z,8.48
2023-11-08T02:23:31.925Z,8.51
2023-11-08T02:25:58.650Z,8.47
2023-11-08T02:28:25.225Z,8.44
2023-11-08T02:30:55.316Z,8.41
2023-11-08T02:33:23.323Z,8.40
2023-11-08T02:35:49.837Z,8.39
2023-11-08T02:38:16.728Z,8.38
2023-11-08T02:40:43.642Z,8.33
2023-11-08T02:43:11.217Z,8.32
2023-11-08T02:45:38.193Z,8.31
2023-11-08T02:48:07.057Z,8.30
2023-11-08T02:50:34.818Z,8.23
2023-11-08T02:53:01.541Z,8.26
2023-11-08T02:55:28.491Z,8.24
2023-11-08T02:57:55.698Z,8.22
2023-11-08T03:00:22.433Z,8.23
2023-11-08T03:02:49.188Z,8.25
2023-11-08T03:05:22.532Z,8.25
2023-11-08T03:07:53.942Z,8.28
2023-11-08T03:10:23.565Z,8.32
2023-11-08T03:12:52.105Z,8.34
2023-11-08T03:15:19.212Z,8.36
2023-11-08T03:17:47.192Z,8.38
2023-11-08T03:20:14.828Z,8.37
2023-11-08T03:22:41.888Z,8.35
2023-11-08T03:25:12.802Z,8.35
2023-11-08T03:27:43.036Z,8.37
2023-11-08T03:30:15.302Z,8.41
2023-11-08T03:32:42.711Z,8.40
2023-11-08T03:35:10.451Z,8.40
2023-11-08T03:37:41.239Z,8.41
2023-11-08T03:40:13.371Z,8.40
2023-11-08T03:42:41.340Z,8.37
2023-11-08T03:45:09.302Z,8.36
2023-11-08T03:47:37.441Z,8.35
2023-11-08T03:50:04.706Z,8.33
2023-11-08T03:52:31.592Z,8.30
2023-11-08T03:54:59.079Z,8.31
2023-11-08T03:57:25.701Z,8.28
2023-11-08T03:59:52.377Z,8.25
2023-11-08T04:02:19.198Z,8.22
2023-11-08T04:04:46.578Z,8.24
2023-11-08T04:07:14.122Z,8.24
2023-11-08T04:09:44.935Z,8.25
2023-11-08T04:12:12.458Z,8.28
2023-11-08T04:14:39.788Z,8.32
2023-11-08T04:17:09.733Z,8.36
2023-11-08T04:19:37.672Z,8.36
2023-11-08T04:22:06.288Z,8.35
2023-11-08T04:24:33.645Z,8.36
2023-11-08T04:27:00.519Z,8.38
2023-11-08T04:29:27.025Z,8.42
2023-11-08T04:31:53.792Z,8.45
2023-11-08T04:34:20.449Z,8.48
2023-11-08T04:36:47.107Z,8.49
2023-11-08T04:39:17.082Z,8.51
2023-11-08T04:41:46.099Z,8.47
2023-11-08T04:44:13.166Z,8.45
2023-11-08T04:46:42.934Z,8.47
2023-11-08T04:49:10.364Z,8.46
2023-11-08T04:51:37.103Z,8.54
2023-11-08T04:54:03.985Z,8.50
2023-11-08T04:56:30.490Z,8.47
2023-11-08T04:58:57.036Z,8.43
2023-11-08T05:01:23.977Z,8.40
2023-11-08T05:03:50.573Z,8.41
2023-11-08T05:06:17.193Z,8.43
2023-11-08T05:08:43.797Z,8.41
2023-11-08T05:11:10.477Z,8.42
2023-11-08T05:13:39.709Z,8.41
2023-11-08T05:16:06.426Z,8.41
2023-11-08T05:18:33.380Z,8.44
2023-11-08T05:20:59.926Z,8.41
2023-11-08T05:23:26.437Z,8.41
2023-11-08T05:25:53.091Z,8.43
2023-11-08T05:28:20.101Z,8.46
2023-11-08T05:30:47.033Z,8.46
2023-11-08T05:33:13.691Z,8.47
2023-11-08T05:35:40.461Z,8.49
2023-11-08T05:38:07.046Z,8.49
2023-11-08T05:40:35.596Z,8.47
2023-11-08T05:43:02.311Z,8.47
2023-11-08T05:45:29.113Z,8.48
2023-11-08T05:47:55.693Z,8.48
2023-11-08T05:50:22.238Z,8.47
2023-11-08T05:52:48.801Z,8.46
2023-11-08T05:55:15.439Z,8.41
2023-11-08T05:57:42.042Z,8.38
2023-11-08T06:00:10.361Z,8.39
2023-11-08T06:02:37.256Z,8.36
2023-11-08T06:05:07.064Z,8.36
2023-11-08T06:07:33.713Z,8.36
2023-11-08T06:10:01.703Z,8.40
2023-11-08T06:12:29.060Z,8.41
2023-11-08T06:14:55.852Z,8.42
2023-11-08T06:17:22.522Z,8.46
2023-11-08T06:19:54.208Z,8.50
2023-11-08T06:22:23.561Z,8.53
2023-11-08T06:24:50.176Z,8.52
2023-11-08T06:27:16.717Z,8.48
2023-11-08T06:29:43.239Z,8.48
2023-11-08T06:32:09.771Z,8.52
2023-11-08T06:34:39.650Z,8.51
2023-11-08T06:37:09.200Z,8.52
2023-11-08T06:39:38.813Z,8.55
2023-11-08T06:42:05.833Z,8.59
2023-11-08T06:44:32.915Z,8.63
2023-11-08T06:46:59.412Z,8.65
2023-11-08T06:49:26.022Z,8.63
2023-11-08T06:51:52.818Z,8.64
2023-11-08T06:54:19.432Z,8.67
2023-11-08T06:56:46.053Z,8.68
2023-11-08T06:59:12.583Z,8.71
2023-11-08T07:01:39.198Z,8.71
2023-11-08T07:04:06.354Z,8.74
2023-11-08T07:06:33.193Z,8.73
2023-11-08T07:08:59.835Z,8.71
2023-11-08T07:11:28.611Z,8.75
2023-11-08T07:13:55.218Z,8.76
2023-11-08T07:16:21.981Z,8.76
2023-11-08T07:18:48.650Z,8.71
2023-11-08T07:21:21.909Z,8.66
2023-11-08T07:23:51.377Z,8.65
2023-11-08T07:26:18.173Z,8.68
2023-11-08T07:28:45.722Z,8.75
2023-11-08T07:31:12.931Z,8.75
2023-11-08T07:33:39.570Z,8.76
2023-11-08T07:36:06.682Z,8.77
2023-11-08T07:38:33.977Z,8.82
2023-11-08T07:41:02.639Z,8.79
2023-11-08T07:43:30.598Z,8.81
2023-11-08T07:45:57.328Z,8.83
2023-11-08T07:48:24.164Z,8.85
2023-11-08T07:50:52.059Z,8.93
2023-11-08T07:53:18.700Z,9.00
2023-11-08T07:55:45.205Z,9.04
2023-11-08T07:58:11.791Z,9.04
2023-11-08T08:00:40.461Z,8.99
2023-11-08T08:03:07.023Z,8.94
2023-11-08T08:05:33.884Z,8.91
2023-11-08T08:08:00.478Z,8.83
2023-11-08T08:10:32.873Z,8.79
2023-11-08T08:12:59.444Z,8.75
2023-11-08T08:15:26.037Z,8.89
2023-11-08T08:17:52.791Z,9.00
2023-11-08T08:20:19.579Z,8.94
2023-11-08T08:22:46.267Z,8.91
2023-11-08T08:25:13.341Z,8.94
2023-11-08T08:27:44.035Z,8.92
2023-11-08T08:30:15.918Z,8.93
2023-11-08T08:32:46.221Z,9.05
2023-11-08T08:35:13.377Z,9.20
2023-11-08T08:37:40.017Z,9.26
2023-11-08T08:40:13.367Z,9.22
2023-11-08T08:42:41.460Z,9.15
2023-11-08T08:45:11.776Z,9.06
2023-11-08T08:47:44.390Z,9.05
2023-11-08T08:50:13.649Z,9.18
2023-11-08T08:52:43.468Z,9.32
2023-11-08T08:55:10.242Z,9.47
2023-11-08T08:57:36.907Z,9.76
2023-11-08T09:00:04.497Z,9.94
2023-11-08T09:02:31.017Z,10.04
2023-11-08T09:04:57.792Z,10.09
2023-11-08T09:07:24.275Z,10.01
2023-11-08T09:09:51.565Z,9.78
2023-11-08T09:12:18.065Z,9.61
2023-11-08T09:14:54.119Z,9.46
2023-11-08T09:17:21.470Z,9.39
2023-11-08T09:19:49.162Z,9.34
2023-11-08T09:22:16.980Z,9.31
2023-11-08T09:24:43.601Z,9.28
2023-11-08T09:27:10.791Z,9.28
2023-11-08T09:29:37.568Z,9.26
2023-11-08T09:32:05.215Z,9.26
2023-11-08T09:34:35.548Z,9.36
2023-11-08T09:37:02.416Z,9.51
2023-11-08T09:39:30.478Z,9.70
2023-11-08T09:41:57.803Z,9.79
2023-11-08T09:44:28.618Z,9.93
2023-11-08T09:46:56.960Z,10.24
2023-11-08T09:49:26.458Z,10.20
2023-11-08T09:51:55.022Z,10.07
2023-11-08T09:54:21.793Z,10.25
2023-11-08T09:56:48.514Z,10.30
2023-11-08T09:59:16.603Z,10.35
2023-11-08T10:01:45.846Z,10.22
2023-11-08T10:04:22.131Z,10.37
2023-11-08T10:06:50.777Z,10.51
2023-11-08T10:09:24.338Z,10.64
2023-11-08T10:11:51.057Z,10.54
2023-11-08T10:14:35.769Z,10.52
2023-11-08T10:17:04.634Z,10.57
2023-11-08T10:19:44.734Z,10.55
2023-11-08T10:22:22.299Z,10.53
2023-11-08T10:24:57.307Z,10.56
2023-11-08T10:27:28.540Z,10.42
2023-11-08T10:30:12.356Z,10.33
2023-11-08T10:32:38.879Z,10.28
2023-11-08T10:35:23.611Z,10.11
2023-11-08T10:37:51.195Z,10.09
2023-11-08T10:40:18.716Z,10.11
2023-11-08T10:42:53.968Z,10.27
2023-11-08T10:45:21.901Z,10.37
2023-11-08T10:47:49.272Z,10.47
2023-11-08T10:50:17.301Z,10.53
2023-11-08T10:52:44.890Z,10.39
2023-11-08T10:55:13.062Z,10.26
2023-11-08T10:57:43.132Z,10.28
2023-11-08T11:00:10.223Z,10.28
2023-11-08T11:02:43.575Z,10.34
2023-11-08T11:05:11.401Z,10.36
2023-11-08T11:07:42.946Z,10.34
2023-11-08T11:10:11.096Z,10.36
2023-11-08T11:12:46.390Z,10.31
2023-11-08T11:15:20.072Z,10.28
2023-11-08T11:17:54.187Z,10.37
2023-11-08T11:20:23.309Z,10.48
2023-11-08T11:22:49.974Z,10.61
2023-11-08T11:25:48.613Z,10.64
2023-11-08T11:28:15.920Z,10.70
2023-11-08T11:30:43.245Z,10.78
2023-11-08T11:33:09.809Z,10.89
2023-11-08T11:35:36.340Z,10.83
2023-11-08T11:38:08.935Z,10.83
2023-11-08T11:40:36.840Z,10.82
2023-11-08T11:43:03.548Z,10.77
2023-11-08T11:45:33.231Z,10.77
2023-11-08T11:48:00.941Z,10.91
2023-11-08T11:50:28.448Z,10.98
2023-11-08T11:52:55.061Z,11.00
2023-11-08T11:55:21.735Z,11.05
2023-11-08T11:57:48.312Z,11.08
2023-11-08T12:00:15.979Z,11.13
2023-11-08T12:02:42.971Z,11.13
2023-11-08T12:05:09.876Z,10.94
2023-11-08T12:07:38.591Z,10.93
2023-11-08T12:10:08.674Z,11.00
2023-11-08T12:12:36.006Z,11.00
2023-11-08T12:15:21.921Z,10.84
2023-11-08T12:17:50.077Z,10.65
2023-11-08T12:20:17.103Z,10.51
2023-11-08T12:22:48.989Z,10.46
2023-11-08T12:25:18.210Z,10.48
2023-11-08T12:27:44.784Z,10.63
2023-11-08T12:30:11.938Z,10.70
2023-11-08T12:32:38.689Z,10.73
2023-11-08T12:35:05.789Z,10.79
2023-11-08T12:37:32.521Z,10.90
2023-11-08T12:40:19.598Z,10.97
2023-11-08T12:42:46.434Z,10.99
2023-11-08T12:46:33.656Z,10.99
2023-11-08T12:48:15.598Z,10.98
2023-11-08T12:51:09.598Z,10.95
2023-11-08T12:53:43.262Z,10.78
2023-11-08T12:56:09.758Z,10.82
2023-11-08T12:58:36.401Z,10.82
2023-11-08T13:01:04.353Z,10.82
2023-11-08T13:03:37.084Z,10.86
2023-11-08T13:06:04.109Z,10.87
2023-11-08T13:08:30.839Z,10.84
2023-11-08T13:11:00.772Z,10.92
2023-11-08T13:13:27.359Z,10.86
2023-11-08T13:15:54.027Z,10.78
2023-11-08T13:18:21.316Z,10.70
2023-11-08T13:20:48.709Z,10.66
2023-11-08T13:23:58.019Z,10.58
2023-11-08T13:26:03.158Z,10.53
2023-11-08T13:28:29.885Z,10.58
2023-11-08T13:30:56.629Z,10.57
2023-11-08T13:33:25.694Z,10.51
2023-11-08T13:35:54.225Z,10.45
2023-11-08T13:38:20.733Z,10.43
2023-11-08T13:40:47.206Z,10.42
2023-11-08T13:43:13.770Z,10.40
2023-11-08T13:45:40.382Z,10.37
2023-11-08T13:48:07.017Z,10.37
2023-11-08T13:50:33.581Z,10.37
2023-11-08T13:53:00.127Z,10.38
2023-11-08T13:55:26.610Z,10.36
2023-11-08T13:57:53.184Z,10.33
2023-11-08T14:00:21.216Z,10.31
2023-11-08T14:02:49.559Z,10.27
2023-11-08T14:05:19.048Z,10.25
2023-11-08T14:07:45.846Z,10.21
2023-11-08T14:10:12.388Z,10.18
2023-11-08T14:12:39.352Z,10.16
2023-11-08T14:15:06.739Z,10.14
2023-11-08T14:17:33.382Z,10.13
2023-11-08T14:20:00.357Z,10.13
2023-11-08T14:22:27.424Z,10.16
2023-11-08T14:24:54.047Z,10.16
2023-11-08T14:27:20.794Z,10.17
2023-11-08T14:29:47.389Z,10.18
2023-11-08T14:32:13.872Z,10.18
2023-11-08T14:34:42.769Z,10.14
2023-11-08T14:37:09.746Z,10.08
2023-11-08T14:39:37.511Z,10.07
2023-11-08T14:42:04.569Z,10.05
2023-11-08T14:44:31.578Z,10.04
2023-11-08T14:46:58.352Z,10.02
2023-11-08T14:49:27.251Z,10.02
2023-11-08T14:51:54.418Z,10.01
2023-11-08T14:54:21.553Z,9.99
2023-11-08T14:56:49.951Z,9.95
2023-11-08T14:59:17.142Z,9.94
2023-11-08T15:01:43.685Z,9.91
2023-11-08T15:04:11.198Z,9.91
2023-11-08T15:06:39.208Z,9.88
2023-11-08T15:09:52.043Z,9.87
2023-11-08T15:11:53.453Z,9.82
2023-11-08T15:14:20.856Z,9.83
2023-11-08T15:16:47.948Z,9.81
2023-11-08T15:19:14.593Z,9.77
2023-11-08T15:21:43.394Z,9.75
2023-11-08T15:24:11.273Z,9.75
2023-11-08T15:26:38.753Z,9.73
2023-11-08T15:29:09.570Z,9.72
2023-11-08T15:31:36.088Z,9.68
2023-11-08T15:34:02.643Z,9.66
2023-11-08T15:36:29.287Z,9.65
2023-11-08T15:38:55.836Z,9.66
2023-11-08T15:41:25.492Z,9.65
2023-11-08T15:43:53.465Z,9.62
2023-11-08T15:46:21.445Z,9.61
2023-11-08T15:48:51.920Z,9.61
2023-11-08T15:51:19.740Z,9.58
2023-11-08T15:53:46.878Z,9.55
2023-11-08T15:56:14.219Z,9.54
2023-11-08T15:58:41.596Z,9.56
2023-11-08T16:01:08.094Z,9.52
2023-11-08T16:03:34.941Z,9.51
2023-11-08T16:06:01.657Z,9.52
2023-11-08T16:08:28.522Z,9.47
2023-11-08T16:10:55.824Z,9.44
2023-11-08T16:13:25.308Z,9.42
2023-11-08T16:15:53.660Z,9.49
2023-11-08T16:18:20.363Z,9.46
2023-11-08T16:20:49.122Z,9.45
2023-11-08T16:23:15.822Z,9.42
2023-11-08T16:25:42.371Z,9.41
2023-11-08T16:28:08.957Z,9.39
2023-11-08T16:31:00.247Z,9.41
2023-11-08T16:33:22.536Z,9.43
2023-11-08T16:35:49.178Z,9.45
2023-11-08T16:38:15.702Z,9.41
2023-11-08T16:40:42.539Z,9.40
2023-11-08T16:43:09.019Z,9.35
2023-11-08T16:45:36.716Z,9.34
2023-11-08T16:48:03.352Z,9.32
2023-11-08T16:50:29.959Z,9.29
2023-11-08T16:52:57.524Z,9.27
2023-11-08T16:55:24.499Z,9.26
2023-11-08T16:57:51.064Z,9.25
2023-11-08T17:00:21.692Z,9.25
2023-11-08T17:02:48.447Z,9.26
2023-11-08T17:05:15.276Z,9.26
2023-11-08T17:07:43.728Z,9.28
2023-11-08T17:10:13.769Z,9.29
2023-11-08T17:12:40.492Z,9.27
2023-11-08T17:15:09.012Z,9.22
2023-11-08T17:17:35.810Z,9.22
2023-11-08T17:20:02.356Z,9.21
2023-11-08T17:22:28.877Z,9.20
2023-11-08T17:24:55.465Z,9.20
2023-11-08T17:27:22.170Z,9.19
2023-11-08T17:29:48.690Z,9.16
2023-11-08T17:32:15.196Z,9.19
2023-11-08T17:34:41.766Z,9.19
2023-11-08T17:37:08.493Z,9.18
2023-11-08T17:39:35.000Z,9.17
2023-11-08T17:42:01.542Z,9.18
2023-11-08T17:44:29.678Z,9.22
2023-11-08T17:46:56.209Z,9.22
2023-11-08T17:49:22.754Z,9.21
2023-11-08T17:51:49.315Z,9.24
2023-11-08T17:54:15.940Z,9.24
2023-11-08T17:56:46.217Z,9.20
2023-11-08T17:59:13.015Z,9.21
2023-11-08T18:01:40.092Z,9.21
2023-11-08T18:04:06.845Z,9.22
2023-11-08T18:06:33.553Z,9.22
2023-11-08T18:09:00.327Z,9.22
2023-11-08T18:11:26.922Z,9.24
2023-11-08T18:13:53.468Z,9.23
2023-11-08T18:16:20.079Z,9.26
2023-11-08T18:18:46.711Z,9.27
2023-11-08T18:21:13.685Z,9.24
2023-11-08T18:23:40.434Z,9.23
2023-11-08T18:26:07.007Z,9.23
2023-11-08T18:28:34.019Z,9.22
2023-11-08T18:31:00.767Z,9.21
2023-11-08T18:33:27.658Z,9.21
2023-11-08T18:35:54.256Z,9.21
2023-11-08T18:38:20.837Z,9.21
2023-11-08T18:40:47.955Z,9.17
2023-11-08T18:43:15.212Z,9.17
2023-11-08T18:45:41.897Z,9.17
2023-11-08T18:48:08.435Z,9.17
2023-11-08T18:50:34.961Z,9.17
2023-11-08T18:53:01.869Z,9.16
2023-11-08T18:55:29.975Z,9.17
2023-11-08T18:57:56.527Z,9.18
2023-11-08T19:00:24.283Z,9.20
2023-11-08T19:02:52.713Z,9.19
2023-11-08T19:05:23.175Z,9.19
2023-11-08T19:07:50.819Z,9.20
2023-11-08T19:10:18.290Z,9.24
2023-11-08T19:12:46.959Z,9.25
2023-11-08T19:15:14.356Z,9.28
2023-11-08T19:17:41.780Z,9.26
2023-11-08T19:20:10.757Z,9.23
2023-11-08T19:22:38.178Z,9.24
2023-11-08T19:25:08.099Z,9.27
2023-11-08T19:27:40.654Z,9.29
2023-11-08T19:30:09.852Z,9.28
2023-11-08T19:32:37.422Z,9.30
2023-11-08T19:35:10.025Z,9.30
2023-11-08T19:37:37.497Z,9.32
2023-11-08T19:40:07.002Z,9.33
2023-11-08T19:42:33.496Z,9.33
2023-11-08T19:45:00.994Z,9.33
2023-11-08T19:47:27.942Z,9.36
2023-11-08T19:49:54.578Z,9.34
2023-11-08T19:52:22.674Z,9.36
2023-11-08T19:54:50.384Z,9.34
2023-11-08T19:57:16.963Z,9.36
2023-11-08T19:59:43.992Z,9.37
2023-11-08T20:02:10.584Z,9.34
2023-11-08T20:04:37.091Z,9.34
2023-11-08T20:07:04.748Z,9.36
2023-11-08T20:09:34.660Z,9.34
2023-11-08T20:12:01.637Z,9.37
2023-11-08T20:14:28.182Z,9.41
2023-11-08T20:16:56.009Z,9.46
2023-11-08T20:19:25.784Z,9.48
2023-11-08T20:21:52.552Z,9.46
2023-11-08T20:24:19.084Z,9.44
2023-11-08T20:26:45.983Z,9.42
2023-11-08T20:29:12.534Z,9.39
2023-11-08T20:31:40.162Z,9.39
2023-11-08T20:34:06.850Z,9.41
2023-11-08T20:36:33.430Z,9.42
2023-11-08T20:38:59.909Z,9.40
2023-11-08T20:41:26.449Z,9.41
2023-11-08T20:43:53.578Z,9.44
2023-11-08T20:46:20.136Z,9.45
2023-11-08T20:48:47.709Z,9.44
2023-11-08T20:51:14.362Z,9.44
2023-11-08T20:53:43.259Z,9.46
2023-11-08T20:56:11.254Z,9.49
2023-11-08T20:58:39.748Z,9.51
2023-11-08T21:01:06.397Z,9.51
2023-11-08T21:03:33.209Z,9.51
2023-11-08T21:06:00.051Z,9.54
2023-11-08T21:08:26.559Z,9.56
2023-11-08T21:10:53.835Z,9.55
2023-11-08T21:13:20.433Z,9.56
2023-11-08T21:15:49.118Z,9.58
2023-11-08T21:18:19.174Z,9.59
2023-11-08T21:20:48.621Z,9.57
2023-11-08T21:23:15.186Z,9.55
2023-11-08T21:25:41.692Z,9.51
2023-11-08T21:28:08.215Z,9.50
2023-11-08T21:30:34.889Z,9.53
2023-11-08T21:33:01.398Z,9.50
2023-11-08T21:35:30.182Z,9.49
2023-11-08T21:37:57.738Z,9.54
2023-11-08T21:40:24.333Z,9.57
2023-11-08T21:42:52.205Z,9.61
2023-11-08T21:45:19.238Z,9.62
2023-11-08T21:47:46.210Z,9.62
2023-11-08T21:50:13.477Z,9.63
2023-11-08T21:52:40.130Z,9.59
2023-11-08T21:55:07.498Z,9.58
2023-11-08T21:57:34.105Z,9.61
2023-11-08T22:00:00.712Z,9.59
2023-11-08T22:02:27.324Z,9.61
2023-11-08T22:04:53.938Z,9.62
2023-11-08T22:07:20.542Z,9.61
2023-11-08T22:09:47.090Z,9.63
2023-11-08T22:12:13.632Z,9.63
2023-11-08T22:14:40.230Z,9.65
2023-11-08T22:17:07.991Z,9.62
2023-11-08T22:19:34.863Z,9.59
2023-11-08T22:22:01.607Z,9.55
2023-11-08T22:24:28.934Z,9.54
2023-11-08T22:26:55.485Z,9.54
2023-11-08T22:29:22.397Z,9.54
2023-11-08T22:31:48.934Z,9.51
2023-11-08T22:34:15.493Z,9.44
2023-11-08T22:36:42.029Z,9.42
2023-11-08T22:39:08.648Z,9.38
2023-11-08T22:41:36.063Z,9.36
2023-11-08T22:44:02.587Z,9.35
2023-11-08T22:46:32.488Z,9.39
2023-11-08T22:48:59.502Z,9.42
2023-11-08T22:51:26.098Z,9.42
2023-11-08T22:53:54.309Z,9.47
2023-11-08T22:56:21.278Z,9.48
2023-11-08T22:58:48.590Z,9.48
2023-11-08T23:01:27.817Z,9.50
2023-11-08T23:03:54.536Z,9.49
2023-11-08T23:06:23.394Z,9.52
2023-11-08T23:08:49.964Z,9.51
2023-11-08T23:11:16.691Z,9.45
2023-11-08T23:13:44.237Z,9.44
2023-11-08T23:16:11.331Z,9.44
2023-11-08T23:18:37.995Z,9.41
2023-11-08T23:21:06.053Z,9.40
2023-11-08T23:23:37.535Z,9.39
2023-11-08T23:26:05.054Z,9.40
2023-11-08T23:28:31.549Z,9.40
2023-11-08T23:30:58.205Z,9.36
2023-11-08T23:33:24.826Z,9.36
2023-11-08T23:35:51.406Z,9.38
2023-11-08T23:38:18.009Z,9.40
2023-11-08T23:40:44.491Z,9.45
2023-11-08T23:43:11.005Z,9.45
2023-11-08T23:45:37.523Z,9.45
2023-11-08T23:48:09.714Z,9.42
2023-11-08T23:50:36.942Z,9.43
2023-11-08T23:53:03.462Z,9.39
2023-11-08T23:55:30.006Z,9.37
2023-11-08T23:57:56.722Z,9.36
